Lake Wylie, South Carolina
Current Conditions -  °F | °C
As of 2:54 AM on Monday 24 Nov 2014 (Local Time) from KAKH Reporting Station
Overcast Overcast  
Wind Chill: 61°   Ceiling: 1900
Heat Index: 61°   Visibility: 10mi
Dew Point: 56°   Wind: 7mph
Humidity: 83%   Direction: 220°SW
Pressure: 29.75"   Gusts: NA
Location:  35.1039°N, 81.2451°W
Report Text: KAKH 240754Z AUTO 22006KT 10SM BKN019 OVC026 16/13 A2975 RMK AO2 SLP075 T01610133
Loading
Personal Weather Stations






























Interactive Weather Map New forecast layout! Learn more

10-Day Weather Forecast

Advertisements
Track Severe Weather on mobile